Pagrindinis puslapis
METAR-TAF:

METAR-TAF

Oro uostai :

Evansvilis, Indiana, Jungtinės Amerikos Valstijos

platuma: 38-02-35N, ilguma: 087-31-13W, Aukštis: 127 m

Dabartinis oras

Ataskaita buvo paskelbta 54 minutes, ne 03:54 UTC
Ramus vėjas
Temperatūra -11°C
Drėgmė 66%
Slėgis 1033 hPa
Matomumas: 16.1 km
Giedras dangus

METAR: KEVV 130354Z 00000KT 10SM CLR M11/M16 A3050 RMK AO2 SLP336 T11061156

Laikas: 22:48 (04:48 UTC)

Prognozė

Ataskaita buvo paskelbta 5 valandos ir 28 minutes, ne 23:20 UTC
Prognozė galioja nuo 13 metu 00 UTC su 13 metu 24 UTC
Vėjas 7 kt iš Šiaurės/Šiaurės Vakarų
Matomumas: 10 km
Išsisklaidę debesys ne aukštis 15000 ft
Nuo 13 metu 0200 UTC
Vėjas 3 kt nuo kintamojo kryptimis
Matomumas: 10 km
Išsisklaidę debesys ne aukštis 15000 ft
Nuo 13 metu 1500 UTC
Vėjas 7 kt iš Pietų/Pietryčių
Matomumas: 10 km
Giedras dangus
Nuo 13 metu 1900 UTC
Vėjas 10 kt iš Pietų
Matomumas: 10 km
Giedras dangus

TAF: KEVV 122320Z 1300/1324 34007KT P6SM SCT150 FM130200 VRB03KT P6SM SCT150 FM131500 15007KT P6SM SKC FM131900 17010KT P6SM SKC

Orai ataskaitas ir orų prognozės (METAR, TAF).

turimą stotys yra geltonos ir raudonos taškus žemėlapyje.

Perkelti pele per norėdami pamatyti stoties vardą.

Tada spustelėkite, norėdami matyti oro stebėjimo ir prognozės.

Norėdami pakeisti žemėlapį: spustelėkite ant žalios mygtukų su juodo kryžiaus žemyn,; žalią mygtuką su brūkšneliu, jei norite nutolinti; arba žalių rodyklių gretimoms žemėlapius.


METAR-TAF: